Terminal Aerodrome Forecast
Issued by NWS Louisville, KY

Home | Current Version | Previous Version | Text Only | Print | Product List | Glossary On
Versions: 1 2 3 4 5 6 7 8 9 10 11 12 13 14 15
000
FTUS43 KLMK 151700
TAFSDF
TAF
KSDF 151734Z 1518/1624 07010KT P6SM BKN025
     FM152100 08009KT P6SM VCSH BKN025
     FM160200 13010KT P6SM -SHRA BKN015
     FM161300 18010KT 5SM BR VCSH BKN012=

USA.gov is the U.S. government's official web portal to all federal, state and local government web resources and services.